Terminal Aerodrome Forecast
Issued by NWS Wakefield, VA

Home | Current Version | Previous Version | Text Only | Print | Product List | Glossary On
Versions: 1 2 3 4 5 6 7 8 9 10 11 12 13 14 15 16 17 18 19 20 21 22 23 24 25 26 27
000
FTUS41 KAKQ 240532
TAFRIC
TAF
KRIC 240532Z 2406/2506 03006KT P6SM OVC005
      TEMPO 2406/2408 -RA OVC004
     FM241000 05006KT P6SM OVC007
     FM241500 08005KT P6SM BKN010
     FM241700 14006KT P6SM OVC010
     FM250000 11009KT P6SM -SHRA OVC012=

USA.gov is the U.S. government's official web portal to all federal, state and local government web resources and services.